Time;durP1;ratioP1;P1;durP2;ratioP2;P2;SDS_P1;SDS_P2;PMS_P1;PMS_P2;Temp;Humidity;BMP_temperature;BMP_pressure;BME280_temperature;BME280_humidity;BME280_pressure;Samples;Min_cycle;Max_cycle;Signal;HPM_P1;HPM_P2
2021/12/28 00:00:27;;;;;;;;;2.50;1.75;;;;;10.70;100.00;99023.13;4956249;28;44991;-84
2021/12/28 00:02:55;;;;;;;;;1.00;1.00;;;;;10.70;100.00;99001.06;4957826;28;44974;-82
2021/12/28 00:05:21;;;;;;;;;1.00;1.00;;;;;10.70;100.00;99007.22;4957820;28;44821;-83
2021/12/28 00:07:47;;;;;;;;;5.00;2.00;;;;;10.69;100.00;98997.56;4958329;28;44685;-83
2021/12/28 00:10:16;;;;;;;;;3.00;2.00;;;;;10.70;100.00;98996.59;4957084;28;44910;-82
2021/12/28 00:12:42;;;;;;;;;9.00;7.60;;;;;10.69;100.00;98992.25;4945476;28;45351;-83
2021/12/28 00:18:02;;;;;;;;;7.20;3.00;;;;;10.66;100.00;98986.41;4942791;28;44775;-84
2021/12/28 00:20:36;;;;;;;;;1.00;1.00;;;;;10.66;100.00;98989.06;4941966;28;44873;-83
2021/12/28 00:23:07;;;;;;;;;0.00;0.00;;;;;10.64;100.00;98989.22;4941177;28;45379;-84
2021/12/28 00:25:34;;;;;;;;;0.40;0.40;;;;;10.62;100.00;98971.72;4941625;28;45296;-83
2021/12/28 00:28:00;;;;;;;;;1.00;0.00;;;;;10.63;100.00;98978.72;4941158;28;44819;-83
2021/12/28 00:30:26;;;;;;;;;1.60;1.00;;;;;10.63;100.00;98965.44;4923281;28;45486;-82
2021/12/28 00:32:53;;;;;;;;;4.00;1.00;;;;;10.60;100.00;98974.53;4940811;28;45364;-83
2021/12/28 00:35:21;;;;;;;;;2.60;1.00;;;;;10.59;100.00;98978.19;4923121;28;44823;-84
2021/12/28 00:37:48;;;;;;;;;1.20;1.20;;;;;10.55;100.00;98974.16;4941164;28;45362;-83
2021/12/28 00:40:13;;;;;;;;;0.60;0.60;;;;;10.57;100.00;98974.81;4923632;28;45349;-82
2021/12/28 00:42:39;;;;;;;;;3.50;1.50;;;;;10.54;100.00;98962.69;4952684;28;45349;-81
2021/12/28 00:45:05;;;;;;;;;0.25;0.25;;;;;10.54;100.00;98954.72;4960334;28;45415;-82
2021/12/28 00:47:30;;;;;;;;;4.60;3.80;;;;;10.58;100.00;98959.72;4943117;28;45343;-83
2021/12/28 00:49:56;;;;;;;;;1.00;1.00;;;;;10.58;100.00;98970.34;4960714;28;44779;-82
2021/12/28 00:52:22;;;;;;;;;1.25;1.25;;;;;10.54;100.00;98960.03;4947537;28;45693;-82
2021/12/28 00:54:47;;;;;;;;;1.00;1.00;;;;;10.54;100.00;98960.03;4945549;28;44834;-83
2021/12/28 00:57:13;;;;;;;;;2.50;2.00;;;;;10.57;100.00;98964.19;4943033;28;44988;-82
2021/12/28 00:59:38;;;;;;;;;0.00;0.00;;;;;10.62;100.00;98963.78;4960199;28;45370;-81
2021/12/28 01:02:04;;;;;;;;;1.00;1.00;;;;;10.64;100.00;98975.09;4943388;28;45931;-83
2021/12/28 01:04:29;;;;;;;;;3.00;3.00;;;;;10.65;100.00;98976.75;4945706;28;45427;-83
2021/12/28 01:06:55;;;;;;;;;5.00;4.00;;;;;10.67;100.00;98974.78;4963469;28;44797;-83
2021/12/28 01:09:29;;;;;;;;;3.00;1.00;;;;;10.68;100.00;98979.09;4960495;28;44931;-84
2021/12/28 01:11:55;;;;;;;;;1.00;1.00;;;;;10.68;100.00;98979.94;4942615;28;45519;-83
2021/12/28 01:14:20;;;;;;;;;2.00;2.00;;;;;10.68;100.00;98977.28;4962276;28;45414;-82
2021/12/28 01:16:46;;;;;;;;;1.00;1.00;;;;;10.69;100.00;98978.97;4960362;28;45434;-82
2021/12/28 01:19:11;;;;;;;;;2.00;2.00;;;;;10.72;100.00;98991.13;4943194;28;45405;-82
2021/12/28 01:21:37;;;;;;;;;1.00;1.00;;;;;10.74;100.00;98990.00;4947489;28;45015;-83
2021/12/28 01:24:03;;;;;;;;;2.00;1.00;;;;;10.79;100.00;98998.38;4940031;28;45475;-82
2021/12/28 01:26:28;;;;;;;;;0.00;0.00;;;;;10.82;100.00;98981.28;4939747;28;45369;-83
2021/12/28 01:28:53;;;;;;;;;0.00;0.00;;;;;10.87;100.00;98988.81;4940135;28;45400;-83
2021/12/28 01:31:19;;;;;;;;;0.00;0.00;;;;;10.91;100.00;98980.41;4953377;28;45481;-83
2021/12/28 01:33:44;;;;;;;;;0.00;0.00;;;;;10.95;100.00;98989.75;4939266;28;45264;-83
2021/12/28 01:36:10;;;;;;;;;0.00;0.00;;;;;10.99;100.00;98977.84;4954440;28;44845;-82
2021/12/28 01:38:35;;;;;;;;;0.00;0.00;;;;;11.03;100.00;98979.22;4957610;28;45551;-83
2021/12/28 01:41:00;;;;;;;;;0.00;0.00;;;;;11.05;100.00;98987.88;4957639;28;46975;-82
2021/12/28 01:43:26;;;;;;;;;1.00;1.00;;;;;11.10;100.00;98981.28;4959769;28;45272;-82
2021/12/28 01:46:02;;;;;;;;;0.00;0.00;;;;;11.15;100.00;98979.00;4945855;28;45289;-83
2021/12/28 01:48:31;;;;;;;;;0.00;0.00;;;;;11.17;100.00;98988.50;4966106;28;45410;-83
2021/12/28 01:51:00;;;;;;;;;0.00;0.00;;;;;11.15;100.00;98987.81;4960611;28;45458;-82
2021/12/28 01:53:26;;;;;;;;;0.00;0.00;;;;;11.18;100.00;98984.88;4957557;28;45466;-83
2021/12/28 01:55:56;;;;;;;;;1.00;0.00;;;;;11.21;100.00;98994.34;4957489;28;44808;-84
2021/12/28 01:58:22;;;;;;;;;0.00;0.00;;;;;11.25;100.00;98996.56;4958284;28;44803;-82
2021/12/28 02:00:50;;;;;;;;;0.00;0.00;;;;;11.31;100.00;99001.28;4940924;28;46781;-84
2021/12/28 02:03:18;;;;;;;;;0.00;0.00;;;;;11.35;100.00;99009.78;4940854;28;45467;-83
2021/12/28 02:05:44;;;;;;;;;0.00;0.00;;;;;11.41;100.00;99008.34;4941275;28;45344;-83
2021/12/28 02:08:15;;;;;;;;;0.00;0.00;;;;;11.46;100.00;99014.03;4941654;28;45355;-84
2021/12/28 02:10:43;;;;;;;;;0.00;0.00;;;;;11.53;100.00;99031.91;4958793;28;45482;-82
2021/12/28 02:13:08;;;;;;;;;0.00;0.00;;;;;11.58;100.00;99026.16;4959205;28;45458;-83
2021/12/28 02:15:35;;;;;;;;;0.00;0.00;;;;;11.63;100.00;99029.19;4962667;28;44904;-82
2021/12/28 02:18:03;;;;;;;;;0.00;0.00;;;;;11.71;100.00;99034.59;4964255;28;45405;-82
2021/12/28 02:20:28;;;;;;;;;0.00;0.00;;;;;11.77;100.00;99035.81;4961900;28;45282;-83
2021/12/28 02:22:54;;;;;;;;;0.00;0.00;;;;;11.83;100.00;99040.53;4959003;28;45166;-82
2021/12/28 02:25:19;;;;;;;;;0.00;0.00;;;;;11.85;100.00;99059.88;4958908;28;45322;-82
2021/12/28 02:27:45;;;;;;;;;0.00;0.00;;;;;11.91;100.00;99047.78;4945118;28;44796;-81
2021/12/28 02:30:14;;;;;;;;;0.00;0.00;;;;;11.91;100.00;99053.94;4966459;28;45439;-82
2021/12/28 02:32:40;;;;;;;;;0.00;0.00;;;;;11.90;100.00;99054.09;4965681;28;44863;-82
2021/12/28 02:35:12;;;;;;;;;0.00;0.00;;;;;11.90;100.00;99056.75;4961405;28;45233;-82
2021/12/28 02:37:38;;;;;;;;;0.00;0.00;;;;;11.91;100.00;99064.56;4958310;28;44940;-81
2021/12/28 02:40:06;;;;;;;;;0.00;0.00;;;;;11.91;100.00;99069.06;4958173;28;45256;-82
2021/12/28 02:42:31;;;;;;;;;0.00;0.00;;;;;11.86;100.00;99074.00;4940836;28;44912;-82
2021/12/28 02:45:01;;;;;;;;;1.00;0.00;;;;;11.85;100.00;99078.50;4958474;28;45356;-81
2021/12/28 02:47:28;;;;;;;;;0.00;0.00;;;;;11.79;100.00;99087.84;4956218;28;44836;-82
2021/12/28 02:49:53;;;;;;;;;0.00;0.00;;;;;11.78;100.00;99088.84;4953584;28;46612;-82
2021/12/28 02:52:19;;;;;;;;;0.00;0.00;;;;;11.78;100.00;99106.66;4957773;28;44859;-81
2021/12/28 02:54:45;;;;;;;;;0.00;0.00;;;;;11.74;100.00;99110.59;4957824;28;45580;-80
2021/12/28 02:57:10;;;;;;;;;0.00;0.00;;;;;11.70;100.00;99118.06;4957956;28;44790;-81
2021/12/28 02:59:47;;;;;;;;;0.00;0.00;;;;;11.64;100.00;99126.59;4956379;28;45347;-82
2021/12/28 03:02:13;;;;;;;;;0.00;0.00;;;;;11.65;100.00;99130.94;4957877;28;45494;-83
2021/12/28 03:04:40;;;;;;;;;0.00;0.00;;;;;11.63;100.00;99122.28;4939682;28;45493;-82
2021/12/28 03:07:05;;;;;;;;;1.80;0.00;;;;;11.67;100.00;99136.13;4957838;28;45343;-81
2021/12/28 03:09:31;;;;;;;;;0.00;0.00;;;;;11.70;100.00;99133.16;4959329;28;45934;-82
2021/12/28 03:11:56;;;;;;;;;1.00;1.00;;;;;11.72;100.00;99131.19;4961773;28;45609;-81
2021/12/28 03:14:22;;;;;;;;;0.00;0.00;;;;;11.69;100.00;99134.13;4964950;28;45470;-83
2021/12/28 03:16:47;;;;;;;;;0.00;0.00;;;;;11.71;100.00;99133.03;4964312;28;44805;-82
2021/12/28 03:19:13;;;;;;;;;0.00;0.00;;;;;11.70;100.00;99136.69;4963532;28;45426;-81
2021/12/28 03:21:40;;;;;;;;;2.00;0.00;;;;;11.70;100.00;99139.34;4961401;28;44816;-81
2021/12/28 03:24:06;;;;;;;;;4.00;0.00;;;;;11.71;100.00;99143.66;4959845;28;44780;-82
2021/12/28 03:26:32;;;;;;;;;0.00;0.00;;;;;11.72;100.00;99141.84;4941435;28;44903;-83
2021/12/28 03:28:59;;;;;;;;;1.00;0.00;;;;;11.70;100.00;99146.44;4958392;28;45619;-81
2021/12/28 03:31:25;;;;;;;;;0.00;0.00;;;;;11.68;100.00;99149.28;4958820;28;45157;-83
2021/12/28 03:33:54;;;;;;;;;0.00;0.00;;;;;11.71;100.00;99153.47;4958846;28;45037;-82
2021/12/28 03:36:21;;;;;;;;;0.60;0.00;;;;;11.74;100.00;99166.44;4958836;28;45380;-81
2021/12/28 03:38:47;;;;;;;;;0.00;0.00;;;;;11.76;100.00;99154.69;4958048;28;45311;-82
2021/12/28 03:41:15;;;;;;;;;0.00;0.00;;;;;11.81;100.00;99168.38;4958609;28;44782;-83
2021/12/28 03:43:43;;;;;;;;;0.00;0.00;;;;;11.82;100.00;99164.75;4958355;28;44822;-81
2021/12/28 03:46:09;;;;;;;;;0.00;0.00;;;;;11.85;100.00;99166.31;4957960;28;44878;-82
2021/12/28 03:48:36;;;;;;;;;0.60;0.00;;;;;11.89;100.00;99175.63;4958014;28;45564;-81
2021/12/28 03:51:02;;;;;;;;;0.00;0.00;;;;;11.89;100.00;99167.66;4959029;28;45370;-81
2021/12/28 03:53:28;;;;;;;;;0.00;0.00;;;;;11.91;100.00;99183.50;4959277;28;45481;-81
2021/12/28 03:55:53;;;;;;;;;0.00;0.00;;;;;11.93;100.00;99177.00;4961024;28;45319;-82
2021/12/28 03:58:19;;;;;;;;;0.75;0.00;;;;;11.97;100.00;99183.72;4964539;28;45025;-82
2021/12/28 04:00:47;;;;;;;;;0.00;0.00;;;;;11.99;100.00;99186.22;4952427;28;45162;-83
2021/12/28 04:03:13;;;;;;;;;0.20;0.00;;;;;11.98;100.00;99165.91;4946052;28;44796;-82
2021/12/28 04:05:39;;;;;;;;;1.00;0.00;;;;;11.96;100.00;99184.72;4945677;28;45431;-82
2021/12/28 04:08:06;;;;;;;;;0.00;0.00;;;;;11.96;100.00;99191.84;4945266;28;45200;-81
2021/12/28 04:10:38;;;;;;;;;1.60;0.00;;;;;11.95;100.00;99184.88;4947195;28;45399;-81
2021/12/28 04:13:04;;;;;;;;;2.00;0.00;;;;;11.90;100.00;99192.47;4947666;28;45315;-82
2021/12/28 04:15:29;;;;;;;;;0.00;0.00;;;;;11.90;100.00;99190.63;4947670;28;44919;-82
2021/12/28 04:17:55;;;;;;;;;0.00;0.00;;;;;11.86;100.00;99189.25;4951500;28;45231;-82
2021/12/28 04:20:21;;;;;;;;;0.00;0.00;;;;;11.86;100.00;99201.72;4950839;28;45483;-82
2021/12/28 04:22:47;;;;;;;;;0.00;0.00;;;;;11.85;100.00;99198.22;4946620;28;45293;-82
2021/12/28 04:25:17;;;;;;;;;0.75;0.00;;;;;11.85;100.00;99202.72;4945685;28;44767;-82
2021/12/28 04:27:43;;;;;;;;;1.80;0.40;;;;;11.83;100.00;99195.69;4927903;28;46334;-82
2021/12/28 04:30:12;;;;;;;;;0.00;0.00;;;;;11.87;100.00;99211.38;4957063;28;45446;-82
2021/12/28 04:32:37;;;;;;;;;1.00;0.00;;;;;11.88;100.00;99213.88;4945650;28;45479;-82
2021/12/28 04:35:04;;;;;;;;;0.50;0.00;;;;;11.90;100.00;99224.41;4947490;28;45428;-81
2021/12/28 04:37:29;;;;;;;;;0.00;0.00;;;;;11.93;100.00;99227.56;4945079;28;47614;-82
2021/12/28 04:39:55;;;;;;;;;0.00;0.00;;;;;11.93;100.00;99219.59;4948029;28;45262;-81
2021/12/28 04:42:20;;;;;;;;;0.00;0.00;;;;;11.95;100.00;99217.63;4944729;28;45327;-83
2021/12/28 04:44:49;;;;;;;;;0.00;0.00;;;;;11.98;100.00;99222.63;4944873;28;44859;-83
2021/12/28 04:47:16;;;;;;;;;0.20;0.00;;;;;12.00;100.00;99214.53;4957662;28;45409;-81
2021/12/28 04:49:42;;;;;;;;;0.00;0.00;;;;;12.00;100.00;99210.03;4964230;28;44791;-81
2021/12/28 04:52:07;;;;;;;;;0.50;0.00;;;;;12.02;100.00;99209.88;4963889;28;44787;-82
2021/12/28 04:54:32;;;;;;;;;0.75;0.00;;;;;12.02;100.00;99210.72;4964005;28;45433;-82
2021/12/28 04:56:59;;;;;;;;;0.80;0.00;;;;;12.05;100.00;99207.78;4961884;28;45407;-81
2021/12/28 04:59:24;;;;;;;;;3.50;0.00;;;;;12.05;100.00;99206.94;4951249;28;45379;-82
2021/12/28 05:01:50;;;;;;;;;2.50;0.00;;;;;12.06;100.00;99209.44;4963822;28;45324;-83
2021/12/28 05:04:15;;;;;;;;;1.00;0.00;;;;;12.08;100.00;99207.44;4946819;28;45547;-82
2021/12/28 05:06:41;;;;;;;;;0.00;0.00;;;;;12.12;100.00;99210.66;4946511;28;46048;-82
2021/12/28 05:09:10;;;;;;;;;0.00;0.00;;;;;12.13;100.00;99216.81;4961893;28;45428;-83
2021/12/28 05:11:36;;;;;;;;;1.80;0.40;;;;;12.17;100.00;99231.50;4961428;28;44768;-81
2021/12/28 05:14:04;;;;;;;;;1.00;0.00;;;;;12.16;100.00;99230.66;4962154;28;45451;-83
2021/12/28 05:16:30;;;;;;;;;0.80;0.00;;;;;12.17;100.00;99235.00;4966965;28;45163;-83
2021/12/28 05:18:57;;;;;;;;;0.80;0.00;;;;;12.20;100.00;99231.22;4968610;28;45395;-82
2021/12/28 05:21:23;;;;;;;;;0.00;0.00;;;;;12.20;100.00;99242.69;4954423;28;44900;-84
2021/12/28 05:23:48;;;;;;;;;1.00;0.25;;;;;12.17;100.00;99243.00;4948866;28;45396;-83
2021/12/28 05:26:14;;;;;;;;;0.00;0.00;;;;;12.17;100.00;99247.47;4961478;28;45495;-83
2021/12/28 05:28:40;;;;;;;;;2.50;1.25;;;;;12.20;100.00;99253.34;4954973;28;44837;-83
2021/12/28 05:31:06;;;;;;;;;4.00;0.80;;;;;12.20;100.00;99264.00;4944705;28;44765;-82
2021/12/28 05:33:31;;;;;;;;;2.75;0.00;;;;;12.23;100.00;99273.50;4941473;28;44785;-80
2021/12/28 05:35:57;;;;;;;;;0.00;0.00;;;;;12.24;100.00;99273.38;4941091;28;45012;-83
2021/12/28 05:38:22;;;;;;;;;0.00;0.00;;;;;12.24;100.00;99262.72;4940956;28;45380;-83
2021/12/28 05:40:48;;;;;;;;;6.00;0.75;;;;;12.27;100.00;99272.22;4940518;28;44828;-81
2021/12/28 05:43:14;;;;;;;;;1.50;0.00;;;;;12.27;100.00;99262.41;4941094;28;45491;-83
2021/12/28 05:45:40;;;;;;;;;1.80;0.00;;;;;12.26;100.00;99267.88;4941120;28;45353;-82
2021/12/28 05:48:05;;;;;;;;;0.00;0.00;;;;;12.29;100.00;99270.25;4960245;28;44856;-82
2021/12/28 05:50:31;;;;;;;;;0.00;0.00;;;;;12.29;100.00;99272.91;4960603;28;45523;-81
2021/12/28 05:52:56;;;;;;;;;1.50;0.75;;;;;12.27;100.00;99280.19;4961250;28;44824;-83
2021/12/28 05:55:21;;;;;;;;;0.00;0.00;;;;;12.29;100.00;99283.56;4960516;28;45346;-83
2021/12/28 05:57:47;;;;;;;;;0.00;0.00;;;;;12.28;100.00;99281.88;4959566;28;45470;-82
2021/12/28 06:00:13;;;;;;;;;1.00;0.75;;;;;12.28;100.00;99269.41;4942409;28;44786;-84
2021/12/28 06:02:39;;;;;;;;;2.80;0.00;;;;;12.33;100.00;99276.97;4957774;28;44992;-85
2021/12/28 06:05:05;;;;;;;;;2.50;1.00;;;;;12.33;100.00;99283.13;4945525;28;45894;-84
2021/12/28 06:07:30;;;;;;;;;0.75;0.75;;;;;12.38;100.00;99288.00;4948728;28;44730;-83
2021/12/28 06:09:57;;;;;;;;;2.00;0.00;;;;;12.36;100.00;99289.97;4927980;28;44796;-83
2021/12/28 06:12:24;;;;;;;;;1.60;0.60;;;;;12.35;100.00;99293.63;4941368;28;44825;-82
2021/12/28 06:14:50;;;;;;;;;2.40;0.00;;;;;12.34;100.00;99302.59;4940823;28;45723;-82
2021/12/28 06:17:15;;;;;;;;;1.80;0.80;;;;;12.34;100.00;99314.09;4945946;28;44666;-82
2021/12/28 06:19:40;;;;;;;;;8.25;1.00;;;;;12.33;100.00;99307.09;4945469;28;44928;-82
2021/12/28 06:22:06;;;;;;;;;5.00;1.00;;;;;12.34;100.00;99299.94;4927750;28;45379;-80
2021/12/28 06:24:31;;;;;;;;;1.50;0.00;;;;;12.33;100.00;99316.91;4958664;28;45515;-82
2021/12/28 06:26:56;;;;;;;;;0.00;0.00;;;;;12.32;100.00;99316.03;4958715;28;44858;-83
2021/12/28 06:29:22;;;;;;;;;1.50;1.00;;;;;12.33;100.00;99312.41;4942281;28;45638;-82
2021/12/28 06:31:47;;;;;;;;;3.25;1.00;;;;;12.32;100.00;99332.03;4959274;28;45002;-82
2021/12/28 06:34:13;;;;;;;;;1.00;1.00;;;;;12.33;100.00;99335.56;4959120;28;45190;-83
2021/12/28 06:36:38;;;;;;;;;0.00;0.00;;;;;12.29;100.00;99350.97;4959304;28;44775;-82
2021/12/28 06:39:05;;;;;;;;;2.25;0.00;;;;;12.20;100.00;99345.69;4959238;28;44793;-82
2021/12/28 06:41:32;;;;;;;;;2.00;0.80;;;;;12.16;100.00;99365.59;4959282;28;44777;-82
2021/12/28 06:43:58;;;;;;;;;0.80;0.80;;;;;12.13;100.00;99363.22;4959176;28;45339;-82
2021/12/28 06:46:23;;;;;;;;;2.50;0.00;;;;;12.07;100.00;99370.81;4960556;28;45299;-83
2021/12/28 06:48:49;;;;;;;;;4.00;1.00;;;;;12.03;100.00;99380.06;4962163;28;44932;-84
2021/12/28 06:51:14;;;;;;;;;3.00;1.50;;;;;11.99;100.00;99370.72;4963677;28;45405;-83
2021/12/28 06:53:40;;;;;;;;;4.50;0.50;;;;;11.97;100.00;99380.66;4956910;28;46747;-82
2021/12/28 06:56:06;;;;;;;;;2.75;1.00;;;;;11.92;100.00;99385.59;4957834;28;45890;-82
2021/12/28 06:58:32;;;;;;;;;0.00;0.00;;;;;11.91;100.00;99378.59;4958967;28;45200;-82
2021/12/28 07:00:58;;;;;;;;;2.50;1.00;;;;;11.90;100.00;99384.91;4958799;28;45311;-82
2021/12/28 07:03:23;;;;;;;;;1.20;1.00;;;;;11.91;100.00;99381.25;4958846;28;45074;-80
2021/12/28 07:05:50;;;;;;;;;7.00;2.25;;;;;11.91;100.00;99370.59;4959378;28;44932;-83
2021/12/28 07:08:15;;;;;;;;;2.00;1.00;;;;;11.89;100.00;99379.69;4959852;28;44832;-82
2021/12/28 07:10:42;;;;;;;;;2.00;1.00;;;;;11.87;100.00;99387.84;4959177;28;44872;-83
2021/12/28 07:13:08;;;;;;;;;3.60;1.40;;;;;11.90;100.00;99392.03;4958901;28;46467;-82
2021/12/28 07:15:34;;;;;;;;;1.60;1.00;;;;;11.90;100.00;99400.88;4959702;28;45335;-82
2021/12/28 07:17:59;;;;;;;;;1.00;1.00;;;;;11.92;100.00;99398.88;4962638;28;44720;-82
2021/12/28 07:20:26;;;;;;;;;5.00;2.00;;;;;11.93;100.00;99399.72;4964023;28;44832;-81
2021/12/28 07:22:51;;;;;;;;;5.80;3.60;;;;;11.92;100.00;99388.25;4963128;28;45186;-83
2021/12/28 07:25:17;;;;;;;;;2.00;2.00;;;;;11.96;100.00;99386.13;4966224;28;44787;-80
2021/12/28 07:27:42;;;;;;;;;5.50;2.50;;;;;11.94;100.00;99391.63;4970975;28;44760;-83
2021/12/28 07:30:10;;;;;;;;;3.75;1.25;;;;;11.95;100.00;99398.59;4970204;28;44871;-83
2021/12/28 07:32:36;;;;;;;;;2.60;1.00;;;;;11.95;100.00;99403.94;4965816;28;45451;-84
2021/12/28 07:35:03;;;;;;;;;1.00;1.00;;;;;11.98;100.00;99398.31;4963056;28;45372;-83
2021/12/28 07:37:28;;;;;;;;;3.60;1.80;;;;;11.99;100.00;99396.47;4957113;28;45409;-83
2021/12/28 07:39:54;;;;;;;;;4.50;2.00;;;;;12.00;100.00;99387.53;4958945;28;45488;-85
2021/12/28 07:42:20;;;;;;;;;3.25;1.25;;;;;12.01;100.00;99392.69;4958593;28;45298;-83
2021/12/28 07:44:46;;;;;;;;;5.00;1.00;;;;;12.04;100.00;99400.41;4958838;28;45318;-83
2021/12/28 07:47:11;;;;;;;;;5.75;2.00;;;;;12.05;100.00;99414.56;4958697;28;45464;-83
2021/12/28 07:49:37;;;;;;;;;4.25;2.00;;;;;12.05;100.00;99411.88;4960527;28;44781;-83
2021/12/28 07:52:03;;;;;;;;;4.50;1.75;;;;;12.09;100.00;99421.28;4959560;28;45306;-84
2021/12/28 07:54:28;;;;;;;;;3.00;1.20;;;;;12.12;100.00;99431.59;4959252;28;44840;-82
2021/12/28 07:56:53;;;;;;;;;1.00;1.00;;;;;12.15;100.00;99433.16;4959285;28;45304;-83
2021/12/28 07:59:19;;;;;;;;;2.75;1.25;;;;;12.17;100.00;99444.50;4958490;28;45597;-83
2021/12/28 08:01:44;;;;;;;;;3.00;2.00;;;;;12.15;100.00;99447.31;4958508;28;45259;-82
2021/12/28 08:04:10;;;;;;;;;4.00;2.00;;;;;12.14;100.00;99442.97;4958170;28;44781;-83
2021/12/28 08:06:35;;;;;;;;;1.00;1.00;;;;;12.14;100.00;99452.78;4958593;28;44738;-82
2021/12/28 08:09:01;;;;;;;;;3.00;2.50;;;;;12.17;100.00;99450.66;4958820;28;45156;-83
2021/12/28 08:11:27;;;;;;;;;3.75;1.50;;;;;12.18;100.00;99462.97;4958925;28;45259;-83
2021/12/28 08:13:53;;;;;;;;;1.80;0.00;;;;;12.14;100.00;99466.09;4958660;28;44792;-82
2021/12/28 08:16:18;;;;;;;;;2.50;1.00;;;;;12.13;100.00;99472.38;4963105;28;45333;-83
2021/12/28 08:18:43;;;;;;;;;4.00;2.75;;;;;12.08;100.00;99468.31;4964854;28;44914;-83
2021/12/28 08:21:09;;;;;;;;;8.75;4.50;;;;;12.03;100.00;99489.19;4958720;28;45862;-82
2021/12/28 08:23:34;;;;;;;;;2.25;2.25;;;;;11.95;100.00;99498.91;4958768;28;45391;-83
2021/12/28 08:26:00;;;;;;;;;9.50;1.50;;;;;11.73;100.00;99511.47;4957712;28;44940;-82
2021/12/28 08:28:29;;;;;;;;;3.25;1.50;;;;;11.59;100.00;99531.34;4961714;28;45422;-82
2021/12/28 08:30:56;;;;;;;;;2.40;1.00;;;;;11.46;100.00;99533.47;4959260;28;46290;-82
2021/12/28 08:33:22;;;;;;;;;5.00;1.00;;;;;11.42;100.00;99536.53;4960398;28;44808;-83
2021/12/28 08:35:47;;;;;;;;;4.50;0.75;;;;;11.36;100.00;99553.00;4959540;28;45727;-82
2021/12/28 08:38:12;;;;;;;;;4.00;2.00;;;;;11.31;100.00;99548.09;4956743;28;45371;-82
2021/12/28 08:40:39;;;;;;;;;5.50;3.75;;;;;11.32;100.00;99565.75;4958433;28;45962;-83
2021/12/28 08:43:06;;;;;;;;;6.60;2.00;;;;;11.32;100.00;99581.72;4957853;28;45382;-83
2021/12/28 08:45:31;;;;;;;;;3.00;1.80;;;;;11.26;100.00;99582.22;4958900;28;44822;-82
2021/12/28 08:47:57;;;;;;;;;4.00;2.50;;;;;11.23;100.00;99590.50;4960404;28;45294;-83
2021/12/28 08:50:23;;;;;;;;;4.00;2.00;;;;;11.25;100.00;99583.22;4980730;28;45415;-83
2021/12/28 08:52:49;;;;;;;;;3.50;1.00;;;;;11.26;100.00;99608.81;4980212;28;45329;-82
2021/12/28 08:55:16;;;;;;;;;3.80;1.60;;;;;11.29;100.00;99593.44;4981771;28;44778;-83
2021/12/28 08:57:42;;;;;;;;;3.40;1.00;;;;;11.32;100.00;99577.22;4963677;28;44844;-83
2021/12/28 09:00:26;;;;;;;;;2.00;2.00;;;;;11.38;100.00;99580.31;4984775;28;45378;-82
2021/12/28 09:02:53;;;;;;;;;1.60;0.60;;;;;11.43;100.00;99576.28;4985544;28;45308;-82
2021/12/28 09:05:19;;;;;;;;;2.20;1.80;;;;;11.46;100.00;99569.81;4981046;28;45235;-82
2021/12/28 09:07:45;;;;;;;;;3.00;2.00;;;;;11.51;100.00;99568.47;4980936;28;44737;-83
2021/12/28 09:10:11;;;;;;;;;2.75;2.00;;;;;11.58;100.00;99553.63;4962306;28;46642;-82
2021/12/28 09:12:37;;;;;;;;;1.75;1.00;;;;;11.66;100.00;99560.91;4980539;28;45517;-81
2021/12/28 09:15:06;;;;;;;;;1.20;0.20;;;;;11.66;100.00;99560.91;4981109;28;45403;-83
2021/12/28 09:17:34;;;;;;;;;2.00;2.00;;;;;11.72;100.00;99552.38;4963288;28;45561;-81
2021/12/28 09:20:00;;;;;;;;;0.80;0.80;;;;;11.74;100.00;99577.00;4963693;28;46881;-83
2021/12/28 09:22:26;;;;;;;;;5.20;2.00;;;;;11.77;100.00;99560.78;4981810;28;45174;-85
2021/12/28 09:24:51;;;;;;;;;2.00;1.00;;;;;11.82;100.00;99553.25;4984581;28;44791;-83
2021/12/28 09:27:18;;;;;;;;;6.00;3.00;;;;;11.85;100.00;99538.00;4965008;28;44860;-82
2021/12/28 09:29:43;;;;;;;;;4.00;1.00;;;;;11.94;100.00;99538.00;4982399;28;45284;-83
2021/12/28 09:32:09;;;;;;;;;4.00;1.75;;;;;11.96;100.00;99532.53;4980499;28;45285;-84
2021/12/28 09:34:35;;;;;;;;;3.75;2.00;;;;;12.02;100.00;99543.44;4980066;28;45382;-85
2021/12/28 09:37:00;;;;;;;;;4.50;2.75;;;;;12.08;100.00;99547.34;4980368;28;45306;-82
2021/12/28 09:39:28;;;;;;;;;4.75;3.25;;;;;12.13;100.00;99528.28;4980280;28;45380;-83
2021/12/28 09:41:56;;;;;;;;;2.80;2.00;;;;;12.20;100.00;99530.25;4980866;28;44732;-84
2021/12/28 09:44:22;;;;;;;;;2.00;2.00;;;;;12.20;100.00;99542.72;4985119;28;44842;-82
2021/12/28 09:46:48;;;;;;;;;7.50;3.00;;;;;12.22;100.00;99546.06;4984519;28;45304;-83
2021/12/28 09:49:13;;;;;;;;;1.00;1.00;;;;;12.25;100.00;99540.47;4979180;28;45164;-84
2021/12/28 09:51:39;;;;;;;;;8.00;3.50;;;;;12.29;100.00;99553.34;4979538;28;45520;-82
2021/12/28 09:54:04;;;;;;;;;3.75;3.00;;;;;12.32;100.00;99541.56;4962408;28;45040;-84
2021/12/28 09:56:31;;;;;;;;;3.00;1.50;;;;;12.40;100.00;99551.50;4978997;28;44849;-82
2021/12/28 09:58:57;;;;;;;;;3.20;3.20;;;;;12.39;100.00;99561.34;4979451;28;45678;-82
2021/12/28 10:01:23;;;;;;;;;3.20;2.60;;;;;12.42;100.00;99573.50;4979200;28;44792;-83
2021/12/28 10:03:49;;;;;;;;;7.50;5.00;;;;;12.46;100.00;99570.41;4979832;28;45326;-83
2021/12/28 10:06:19;;;;;;;;;8.00;5.50;;;;;12.48;100.00;99557.81;4980579;28;44717;-82
2021/12/28 10:08:45;;;;;;;;;5.20;1.20;;;;;12.50;100.00;99562.97;4979451;28;46298;-83
2021/12/28 10:11:10;;;;;;;;;5.75;4.00;;;;;12.51;100.00;99568.16;4979904;28;45413;-83
2021/12/28 10:13:36;;;;;;;;;5.50;4.50;;;;;12.48;100.00;99571.13;4981148;28;45482;-83
2021/12/28 10:16:02;;;;;;;;;8.25;3.00;;;;;12.51;100.00;99565.50;4966006;28;45644;-83
2021/12/28 10:18:28;;;;;;;;;4.50;2.75;;;;;12.51;100.00;99578.81;4984519;28;45356;-83
2021/12/28 10:21:00;;;;;;;;;8.60;5.20;;;;;12.51;100.00;99565.50;4986496;28;45248;-83
2021/12/28 10:23:29;;;;;;;;;5.40;3.20;;;;;12.53;100.00;99571.53;4987533;28;44743;-82
2021/12/28 10:25:57;;;;;;;;;10.80;4.00;;;;;12.50;100.00;99589.63;4967713;28;44887;-84
2021/12/28 10:28:33;;;;;;;;;10.20;6.80;;;;;12.49;100.00;99601.28;4969355;28;46757;-82
2021/12/28 10:31:28;;;;;;;;;9.60;4.60;;;;;12.53;100.00;99597.34;4966396;28;45263;-83
2021/12/28 10:33:56;;;;;;;;;3.60;2.00;;;;;12.54;100.00;99601.69;4969874;28;44819;-81
2021/12/28 10:36:32;;;;;;;;;7.00;3.80;;;;;12.49;100.00;99591.44;4979035;28;45466;-82
2021/12/28 10:38:57;;;;;;;;;7.40;4.80;;;;;12.51;100.00;99605.44;4978186;28;45494;-83
2021/12/28 10:41:23;;;;;;;;;5.25;2.00;;;;;12.49;100.00;99604.78;4978474;28;45239;-81
2021/12/28 10:43:54;;;;;;;;;7.75;3.25;;;;;12.50;100.00;99589.63;4960646;28;44784;-83
2021/12/28 10:46:24;;;;;;;;;10.00;4.80;;;;;12.52;100.00;99600.97;4978597;28;45382;-82
2021/12/28 10:48:56;;;;;;;;;5.20;5.00;;;;;12.53;100.00;99603.50;4969926;28;45235;-81
2021/12/28 10:51:39;;;;;;;;;3.80;2.60;;;;;12.54;100.00;99605.19;4959195;28;45424;-83
2021/12/28 10:54:12;;;;;;;;;8.40;3.60;;;;;12.57;100.00;99596.91;4958731;28;45418;-82
2021/12/28 10:56:47;;;;;;;;;8.60;3.80;;;;;12.58;100.00;99574.59;4956731;28;45329;-81
2021/12/28 10:59:14;;;;;;;;;5.20;4.60;;;;;12.61;100.00;99600.94;4957849;28;45076;-81
2021/12/28 11:01:42;;;;;;;;;6.60;4.80;;;;;12.62;100.00;99607.13;4958450;28;44763;-81
2021/12/28 11:04:12;;;;;;;;;9.00;3.00;;;;;12.58;100.00;99611.91;4958880;28;44838;-81
2021/12/28 11:06:42;;;;;;;;;10.80;5.00;;;;;12.59;100.00;99631.41;4958838;28;44966;-82
2021/12/28 11:09:09;;;;;;;;;6.00;4.60;;;;;12.60;100.00;99620.59;4959774;28;45560;-82
2021/12/28 11:11:36;;;;;;;;;9.00;4.00;;;;;12.61;100.00;99624.91;4962348;28;44876;-83
2021/12/28 11:14:05;;;;;;;;;4.60;3.00;;;;;12.61;100.00;99619.59;4964572;28;45476;-82
2021/12/28 11:16:32;;;;;;;;;9.00;3.80;;;;;12.61;100.00;99603.59;4960346;28;45364;-82
2021/12/28 11:19:01;;;;;;;;;7.80;4.40;;;;;12.61;100.00;99621.41;4960203;28;45379;-82
2021/12/28 11:21:30;;;;;;;;;8.00;6.40;;;;;12.56;100.00;99624.50;4963797;28;45421;-81
2021/12/28 11:24:04;;;;;;;;;7.60;5.00;;;;;12.54;100.00;99628.31;4961743;28;45427;-83